Time;durP1;ratioP1;P1;durP2;ratioP2;P2;SDS_P1;SDS_P2;PMS_P1;PMS_P2;Temp;Humidity;BMP_temperature;BMP_pressure;BME280_temperature;BME280_humidity;BME280_pressure;Samples;Min_cycle;Max_cycle;Signal;HPM_P1;HPM_P2
2022/05/07 00:00:27;;;;;;;38.35;27.23;;;12.90;99.90;;;;;;5077704;28;20044;-76
2022/05/07 00:02:52;;;;;;;39.17;27.55;;;11.90;99.90;;;;;;5074921;28;20074;-77
2022/05/07 00:05:19;;;;;;;42.13;29.75;;;12.90;99.90;;;;;;5097494;28;20100;-76
2022/05/07 00:07:45;;;;;;;37.03;27.63;;;12.90;99.90;;;;;;5097153;28;20052;-77
2022/05/07 00:10:11;;;;;;;38.75;30.08;;;12.90;99.90;;;;;;5101140;28;20383;-77
2022/05/07 00:12:38;;;;;;;42.38;30.35;;;12.90;99.90;;;;;;5097766;28;20502;-77
2022/05/07 00:15:04;;;;;;;45.08;30.58;;;12.90;99.90;;;;;;5098543;28;20214;-77
2022/05/07 00:20:14;;;;;;;40.03;30.10;;;13.00;99.90;;;;;;5106513;27;20044;-77
2022/05/07 00:22:40;;;;;;;40.15;29.83;;;12.70;99.90;;;;;;5086719;28;20108;-77
2022/05/07 00:25:05;;;;;;;38.92;28.88;;;12.60;99.90;;;;;;5086413;28;20539;-77
2022/05/07 00:27:31;;;;;;;38.15;28.73;;;12.70;99.90;;;;;;5104938;28;20048;-77
2022/05/07 00:29:57;;;;;;;39.00;29.85;;;12.70;99.90;;;;;;5088989;28;20040;-76
2022/05/07 00:32:22;;;;;;;45.38;31.40;;;12.60;99.90;;;;;;5104233;27;20048;-77
2022/05/07 00:34:48;;;;;;;40.30;28.75;;;13.80;99.90;;;;;;5106823;28;20526;-77
2022/05/07 00:37:13;;;;;;;41.17;28.73;;;12.90;99.90;;;;;;5106319;27;20047;-77
2022/05/07 00:39:39;;;;;;;39.88;29.80;;;12.80;99.90;;;;;;5101872;28;20043;-77
2022/05/07 00:42:06;;;;;;;39.70;30.73;;;12.80;99.90;;;;;;5103277;28;20093;-77
2022/05/07 00:44:33;;;;;;;40.47;30.92;;;12.80;99.90;;;;;;5083508;28;20049;-76
2022/05/07 00:47:10;;;;;;;40.33;29.50;;;12.90;99.90;;;;;;5104172;28;20084;-77
2022/05/07 00:49:36;;;;;;;43.30;30.52;;;12.80;99.90;;;;;;5103332;27;20111;-77
2022/05/07 00:52:02;;;;;;;42.78;29.20;;;12.90;99.90;;;;;;5100885;28;20048;-77
2022/05/07 00:54:28;;;;;;;42.67;32.22;;;12.90;99.90;;;;;;5106420;28;20051;-77
2022/05/07 00:56:54;;;;;;;48.75;33.55;;;12.80;99.90;;;;;;5106381;28;20035;-77
2022/05/07 00:59:20;;;;;;;44.35;31.23;;;12.90;99.90;;;;;;5101689;27;20039;-77
2022/05/07 01:01:46;;;;;;;40.85;31.50;;;13.90;99.90;;;;;;5102908;27;20506;-78
2022/05/07 01:04:11;;;;;;;44.30;33.00;;;13.90;99.90;;;;;;5104981;28;20172;-77
2022/05/07 01:06:38;;;;;;;44.80;31.02;;;12.80;99.90;;;;;;5106902;28;20128;-78
2022/05/07 01:09:04;;;;;;;48.42;33.17;;;12.80;99.90;;;;;;5104682;28;20491;-77
2022/05/07 01:11:31;;;;;;;47.33;32.50;;;12.90;99.90;;;;;;5100400;28;20078;-77
2022/05/07 01:13:57;;;;;;;42.15;32.03;;;12.80;99.90;;;;;;5069532;28;20046;-78
2022/05/07 01:16:23;;;;;;;43.55;32.28;;;12.80;99.90;;;;;;5105719;28;20039;-76
2022/05/07 01:18:49;;;;;;;45.95;32.88;;;12.80;99.90;;;;;;5105743;28;20043;-77
2022/05/07 01:21:17;;;;;;;41.85;30.50;;;12.70;99.90;;;;;;5103420;28;20044;-78
2022/05/07 01:23:44;;;;;;;43.75;31.58;;;14.30;99.90;;;;;;5105408;28;20043;-75
2022/05/07 01:26:10;;;;;;;44.67;31.60;;;12.90;99.90;;;;;;5105744;28;20165;-78
2022/05/07 01:28:37;;;;;;;44.78;32.45;;;14.20;99.90;;;;;;5105423;28;20050;-78
2022/05/07 01:31:03;;;;;;;42.22;32.10;;;12.90;99.90;;;;;;5098410;27;20046;-77
2022/05/07 01:33:33;;;;;;;42.30;31.00;;;12.90;99.90;;;;;;5098624;27;20134;-77
2022/05/07 01:36:02;;;;;;;41.67;32.38;;;12.90;99.90;;;;;;5083687;28;20035;-76
2022/05/07 01:38:29;;;;;;;43.30;32.13;;;12.90;99.90;;;;;;5100116;28;20111;-79
2022/05/07 01:40:55;;;;;;;40.42;30.10;;;13.60;99.90;;;;;;5097955;28;20036;-78
2022/05/07 01:43:21;;;;;;;41.80;32.05;;;12.60;99.90;;;;;;5082984;28;20039;-78
2022/05/07 01:45:46;;;;;;;47.75;34.22;;;12.80;99.90;;;;;;5107690;28;20035;-78
2022/05/07 01:48:13;;;;;;;42.22;32.45;;;12.80;99.90;;;;;;5099950;28;20036;-78
2022/05/07 01:50:41;;;;;;;43.13;32.53;;;12.80;99.90;;;;;;5073300;28;20055;-78
2022/05/07 01:53:12;;;;;;;42.15;31.65;;;13.80;99.90;;;;;;5096159;27;20051;-77
2022/05/07 01:55:38;;;;;;;41.92;31.13;;;12.80;99.90;;;;;;5094780;27;20028;-76
2022/05/07 01:58:04;;;;;;;41.13;30.45;;;12.80;99.90;;;;;;5094447;27;20043;-77
2022/05/07 02:00:31;;;;;;;46.45;31.67;;;12.80;99.90;;;;;;5102358;27;20040;-78
2022/05/07 02:02:58;;;;;;;42.78;32.83;;;13.30;99.90;;;;;;5073749;28;20047;-77
2022/05/07 02:05:25;;;;;;;42.00;30.50;;;12.90;99.90;;;;;;5095752;28;20184;-77
2022/05/07 02:07:51;;;;;;;38.83;31.08;;;12.80;99.90;;;;;;5103875;28;20312;-77
2022/05/07 02:10:17;;;;;;;38.60;31.00;;;12.80;99.90;;;;;;5085866;28;20040;-78
2022/05/07 02:12:43;;;;;;;39.83;30.25;;;12.90;99.90;;;;;;5098972;28;20040;-77
2022/05/07 02:15:09;;;;;;;38.47;29.85;;;12.90;99.90;;;;;;5087719;28;20040;-78
2022/05/07 02:17:34;;;;;;;41.95;30.80;;;12.80;99.90;;;;;;5106345;28;20552;-77
2022/05/07 02:20:00;;;;;;;42.40;31.80;;;12.90;99.90;;;;;;5105600;28;20039;-78
2022/05/07 02:22:26;;;;;;;39.03;31.17;;;12.90;99.90;;;;;;5088894;28;20050;-78
2022/05/07 02:24:51;;;;;;;43.13;31.15;;;12.80;99.90;;;;;;5088824;28;20383;-75
2022/05/07 02:27:17;;;;;;;39.70;29.58;;;14.50;99.90;;;;;;5107247;28;20107;-77
2022/05/07 02:29:43;;;;;;;36.50;27.90;;;12.90;99.90;;;;;;5084420;28;20549;-77
2022/05/07 02:32:13;;;;;;;43.42;30.80;;;12.80;99.90;;;;;;5087168;28;20130;-78
2022/05/07 02:34:40;;;;;;;39.13;29.80;;;13.20;99.90;;;;;;5084489;28;20035;-76
2022/05/07 02:37:06;;;;;;;37.47;28.30;;;12.80;99.90;;;;;;5102546;28;20035;-78
2022/05/07 02:39:32;;;;;;;35.97;28.60;;;12.80;99.90;;;;;;5080868;28;20132;-77
2022/05/07 02:44:43;;;;;;;38.15;30.08;;;12.80;99.90;;;;;;5098360;28;20153;-78
2022/05/07 02:47:09;;;;;;;41.13;30.58;;;14.20;99.90;;;;;;5102907;28;20043;-78
2022/05/07 02:49:35;;;;;;;33.58;28.30;;;12.80;99.90;;;;;;5085530;28;20168;-78
2022/05/07 02:52:01;;;;;;;33.63;28.20;;;14.10;99.90;;;;;;5081131;28;20047;-77
2022/05/07 02:54:27;;;;;;;38.55;28.48;;;12.80;99.90;;;;;;5105105;28;20169;-77
2022/05/07 02:56:54;;;;;;;34.65;28.48;;;12.80;99.90;;;;;;5102770;28;20434;-77
2022/05/07 02:59:19;;;;;;;36.90;28.05;;;12.80;99.90;;;;;;5105582;28;20043;-77
2022/05/07 03:01:45;;;;;;;37.35;27.55;;;12.80;99.90;;;;;;5098029;28;20522;-78
2022/05/07 03:04:10;;;;;;;31.40;27.13;;;14.30;99.90;;;;;;5102731;27;20127;-78
2022/05/07 03:06:39;;;;;;;34.78;27.73;;;12.80;99.90;;;;;;5101195;28;20046;-78
2022/05/07 03:09:07;;;;;;;38.10;28.23;;;13.90;99.90;;;;;;5107321;28;20127;-77
2022/05/07 03:11:34;;;;;;;33.78;27.95;;;12.80;99.90;;;;;;5096021;28;20066;-78
2022/05/07 03:14:04;;;;;;;35.83;28.25;;;12.80;99.90;;;;;;5106427;27;20466;-78
2022/05/07 03:16:31;;;;;;;36.25;27.95;;;12.70;99.90;;;;;;5105148;27;20088;-78
2022/05/07 03:18:57;;;;;;;33.20;28.13;;;12.90;99.90;;;;;;5104365;28;20432;-78
2022/05/07 03:21:23;;;;;;;38.83;29.95;;;12.70;99.90;;;;;;5105537;28;20376;-77
2022/05/07 03:23:48;;;;;;;34.10;27.98;;;12.70;99.90;;;;;;5104499;28;20088;-78
2022/05/07 03:26:14;;;;;;;34.40;27.02;;;14.00;99.90;;;;;;5105921;28;20071;-78
2022/05/07 03:28:40;;;;;;;32.42;26.60;;;13.70;99.90;;;;;;5078734;28;20031;-77
2022/05/07 03:31:06;;;;;;;34.25;28.30;;;12.60;99.90;;;;;;5080285;28;20036;-77
2022/05/07 03:33:32;;;;;;;32.30;26.23;;;12.50;99.90;;;;;;5077989;28;20043;-77
2022/05/07 03:35:58;;;;;;;32.28;26.90;;;12.50;99.90;;;;;;5092639;28;20147;-77
2022/05/07 03:38:24;;;;;;;31.33;25.45;;;12.50;99.90;;;;;;5081104;28;20042;-77
2022/05/07 03:40:50;;;;;;;30.85;25.58;;;12.50;99.90;;;;;;5097725;28;20155;-77
2022/05/07 03:43:16;;;;;;;27.42;24.42;;;12.50;99.90;;;;;;5100160;28;20047;-75
2022/05/07 03:45:42;;;;;;;30.45;26.92;;;12.50;99.90;;;;;;5102006;28;20040;-77
2022/05/07 03:48:09;;;;;;;31.48;26.25;;;12.50;99.90;;;;;;5098347;28;20051;-73
2022/05/07 03:50:34;;;;;;;31.27;27.15;;;12.50;99.90;;;;;;5085904;28;20040;-74
2022/05/07 03:55:44;;;;;;;28.42;24.80;;;12.50;99.90;;;;;;5101842;28;20036;-75
2022/05/07 03:58:17;;;;;;;32.40;26.77;;;12.50;99.90;;;;;;5111052;28;20398;-75
2022/05/07 04:00:43;;;;;;;29.55;25.30;;;13.30;99.90;;;;;;5105570;28;20161;-75
2022/05/07 04:03:13;;;;;;;30.13;24.25;;;12.40;99.90;;;;;;5117556;27;20127;-74
2022/05/07 04:05:39;;;;;;;29.02;25.92;;;12.50;99.90;;;;;;5105077;28;20043;-75
2022/05/07 04:08:06;;;;;;;30.67;25.77;;;12.50;99.90;;;;;;5103571;28;20649;-74
2022/05/07 04:10:31;;;;;;;28.48;25.40;;;12.50;99.90;;;;;;5104340;28;20036;-71
2022/05/07 04:12:57;;;;;;;28.65;25.42;;;12.80;99.90;;;;;;5104662;28;20439;-74
2022/05/07 04:15:23;;;;;;;28.63;23.65;;;12.50;99.90;;;;;;5104211;28;20093;-76
2022/05/07 04:17:49;;;;;;;27.30;24.48;;;12.50;99.90;;;;;;5105875;28;20093;-72
2022/05/07 04:20:15;;;;;;;31.02;24.95;;;12.50;99.90;;;;;;5111287;27;20120;-76
2022/05/07 04:22:41;;;;;;;27.75;24.90;;;12.50;99.90;;;;;;5093463;28;20457;-75
2022/05/07 04:25:08;;;;;;;27.77;24.52;;;12.50;99.90;;;;;;5093901;28;20047;-75
2022/05/07 04:27:34;;;;;;;26.27;23.17;;;12.50;99.90;;;;;;5085607;28;20513;-70
2022/05/07 04:30:00;;;;;;;27.08;24.38;;;12.40;99.90;;;;;;5111340;27;20447;-74
2022/05/07 04:32:26;;;;;;;28.52;25.27;;;12.40;99.90;;;;;;5105341;27;20040;-74
2022/05/07 04:34:52;;;;;;;27.17;24.17;;;12.50;99.90;;;;;;5104020;27;20580;-73
2022/05/07 04:37:18;;;;;;;27.65;24.48;;;12.40;99.90;;;;;;5104813;27;20131;-73
2022/05/07 04:39:43;;;;;;;27.17;24.38;;;12.50;99.90;;;;;;5109391;27;20031;-74
2022/05/07 04:42:09;;;;;;;27.27;24.42;;;12.50;99.90;;;;;;5100676;27;20031;-75
2022/05/07 04:44:35;;;;;;;26.80;24.08;;;12.50;99.90;;;;;;5114274;27;20044;-75
2022/05/07 04:47:01;;;;;;;27.83;24.88;;;13.10;99.90;;;;;;5110321;28;20043;-73
2022/05/07 04:49:26;;;;;;;27.08;23.25;;;12.50;99.90;;;;;;5110386;28;20338;-74
2022/05/07 04:51:52;;;;;;;27.02;24.33;;;13.40;99.90;;;;;;5104808;27;20491;-72
2022/05/07 04:54:22;;;;;;;26.67;23.88;;;12.50;99.90;;;;;;5108849;28;20117;-74
2022/05/07 04:56:48;;;;;;;27.58;24.73;;;12.60;99.90;;;;;;5109829;28;20043;-75
2022/05/07 04:59:14;;;;;;;28.35;25.23;;;13.40;99.90;;;;;;5102781;27;20506;-74
2022/05/07 05:01:41;;;;;;;30.38;26.85;;;12.60;99.90;;;;;;5104132;27;20036;-75
2022/05/07 05:04:06;;;;;;;29.08;25.85;;;12.60;99.90;;;;;;5102660;27;20047;-75
2022/05/07 05:06:32;;;;;;;29.48;26.20;;;12.60;99.90;;;;;;5103524;27;20070;-73
2022/05/07 05:08:58;;;;;;;28.70;23.98;;;12.60;99.90;;;;;;5106761;27;20429;-74
2022/05/07 05:11:25;;;;;;;29.08;25.15;;;12.60;99.90;;;;;;5105137;27;20136;-73
2022/05/07 05:13:50;;;;;;;28.48;24.92;;;12.60;99.90;;;;;;5098891;27;20043;-74
2022/05/07 05:16:16;;;;;;;27.75;24.92;;;12.60;99.90;;;;;;5112100;27;20037;-76
2022/05/07 05:18:42;;;;;;;41.03;23.83;;;12.70;99.90;;;;;;5109348;27;20042;-77
2022/05/07 05:21:08;;;;;;;29.15;25.58;;;12.70;99.90;;;;;;5094863;27;20100;-76
2022/05/07 05:23:33;;;;;;;27.98;25.05;;;12.70;99.90;;;;;;5114025;27;20046;-77
2022/05/07 05:25:59;;;;;;;29.38;26.17;;;13.60;99.90;;;;;;5102981;27;20548;-76
2022/05/07 05:28:25;;;;;;;28.17;25.15;;;12.70;99.90;;;;;;5093510;27;20043;-77
2022/05/07 05:30:51;;;;;;;29.60;26.38;;;12.70;99.90;;;;;;5104451;27;20043;-78
2022/05/07 05:33:18;;;;;;;31.27;27.85;;;13.10;99.90;;;;;;5094223;28;20047;-78
2022/05/07 05:35:43;;;;;;;32.35;26.63;;;12.40;99.90;;;;;;5089317;28;20127;-76
2022/05/07 05:38:09;;;;;;;31.65;26.30;;;12.70;99.90;;;;;;5108000;28;20111;-76
2022/05/07 05:40:35;;;;;;;28.90;25.77;;;13.20;99.90;;;;;;5110245;28;20044;-78
2022/05/07 05:43:00;;;;;;;31.45;26.63;;;12.60;99.90;;;;;;5110524;27;20023;-77
2022/05/07 05:45:27;;;;;;;31.92;27.67;;;12.70;99.90;;;;;;5112040;27;20076;-76
2022/05/07 05:47:53;;;;;;;27.50;24.65;;;12.70;99.90;;;;;;5091617;28;20069;-77
2022/05/07 05:50:19;;;;;;;30.13;26.35;;;12.80;99.90;;;;;;5093247;27;20031;-77
2022/05/07 05:52:45;;;;;;;28.42;25.40;;;13.70;99.90;;;;;;5118268;27;20040;-77
2022/05/07 05:55:11;;;;;;;30.35;25.00;;;12.80;99.90;;;;;;5104652;28;20036;-78
2022/05/07 05:57:37;;;;;;;30.80;27.55;;;12.80;99.90;;;;;;5110484;28;20142;-79
2022/05/07 06:00:07;;;;;;;30.13;26.48;;;12.90;99.90;;;;;;5109109;27;20048;-77
2022/05/07 06:02:33;;;;;;;26.63;23.80;;;12.90;99.90;;;;;;5093910;28;20070;-76
2022/05/07 06:04:59;;;;;;;28.30;25.27;;;12.90;99.90;;;;;;5109562;27;20522;-77
2022/05/07 06:07:25;;;;;;;27.77;24.98;;;13.10;99.90;;;;;;5104051;28;20040;-78
2022/05/07 06:09:50;;;;;;;30.83;25.58;;;13.00;99.90;;;;;;5109102;28;20032;-78
2022/05/07 06:12:16;;;;;;;27.83;24.75;;;12.20;99.90;;;;;;5089020;28;20146;-78
2022/05/07 06:14:42;;;;;;;25.02;22.40;;;13.90;99.90;;;;;;5106962;28;20132;-77
2022/05/07 06:17:08;;;;;;;25.50;23.02;;;13.20;99.90;;;;;;5102784;27;20139;-77
2022/05/07 06:19:33;;;;;;;27.27;22.65;;;13.20;99.90;;;;;;5091747;28;20072;-77
2022/05/07 06:21:59;;;;;;;28.65;22.77;;;13.20;99.90;;;;;;5107795;28;20035;-77
2022/05/07 06:29:53;;;;;;;26.23;23.48;;;13.20;99.90;;;;;;5099739;28;20063;-74
2022/05/07 06:32:19;;;;;;;27.63;24.38;;;13.20;99.90;;;;;;5107122;27;20043;-74
2022/05/07 06:34:45;;;;;;;25.42;22.83;;;13.10;99.90;;;;;;5105876;27;20704;-76
2022/05/07 06:37:11;;;;;;;25.67;22.77;;;13.20;99.90;;;;;;5106511;27;20096;-75
2022/05/07 06:39:37;;;;;;;26.83;24.02;;;13.90;99.90;;;;;;5107139;28;20483;-76
2022/05/07 06:42:04;;;;;;;24.80;22.33;;;14.20;99.90;;;;;;5107631;28;20495;-76
2022/05/07 06:44:29;;;;;;;28.30;23.67;;;13.20;99.90;;;;;;5085740;28;20070;-75
2022/05/07 06:46:56;;;;;;;29.40;24.38;;;14.30;99.90;;;;;;5109599;28;20475;-76
2022/05/07 06:49:22;;;;;;;27.83;24.92;;;14.20;99.90;;;;;;5107785;27;20048;-75
2022/05/07 06:51:48;;;;;;;27.52;23.90;;;13.20;99.90;;;;;;5106387;28;20055;-76
2022/05/07 06:54:14;;;;;;;27.05;22.83;;;13.30;99.90;;;;;;5109515;28;20052;-76
2022/05/07 06:56:39;;;;;;;25.52;22.70;;;13.30;99.90;;;;;;5107853;27;20122;-76
2022/05/07 06:59:05;;;;;;;25.45;22.85;;;13.30;99.90;;;;;;5104321;27;20043;-77
2022/05/07 07:01:31;;;;;;;27.95;23.25;;;13.40;99.90;;;;;;5108303;27;20055;-75
2022/05/07 07:03:57;;;;;;;26.83;23.35;;;13.70;99.90;;;;;;5111510;27;20135;-77
2022/05/07 07:06:22;;;;;;;26.98;24.10;;;13.60;99.90;;;;;;5109338;27;20039;-76
2022/05/07 07:08:48;;;;;;;25.08;21.90;;;14.00;99.90;;;;;;5109417;27;20106;-76
2022/05/07 07:11:14;;;;;;;26.45;22.83;;;13.60;99.90;;;;;;5106600;28;20039;-75
2022/05/07 07:13:41;;;;;;;29.00;23.40;;;13.70;99.90;;;;;;5108985;28;20058;-78
2022/05/07 07:16:06;;;;;;;28.30;24.77;;;13.80;99.90;;;;;;5107744;28;20041;-75
2022/05/07 07:18:32;;;;;;;26.27;23.08;;;15.10;99.90;;;;;;5108589;28;20487;-77
2022/05/07 07:20:57;;;;;;;27.10;23.85;;;13.90;99.90;;;;;;5108826;28;20040;-76
2022/05/07 07:23:23;;;;;;;26.45;23.77;;;14.10;99.90;;;;;;5109152;28;20036;-75
2022/05/07 07:25:48;;;;;;;28.33;24.45;;;14.10;99.90;;;;;;5103912;28;20052;-76
2022/05/07 07:28:14;;;;;;;29.63;24.52;;;14.10;99.90;;;;;;5105250;27;20691;-77
2022/05/07 07:30:40;;;;;;;28.35;23.73;;;14.10;99.90;;;;;;5088388;28;20046;-77
2022/05/07 07:33:07;;;;;;;27.05;24.10;;;14.20;99.90;;;;;;4395928;27;10000723;-75
2022/05/07 07:35:32;;;;;;;27.92;25.02;;;14.30;99.90;;;;;;5077217;27;20059;-76
2022/05/07 07:37:58;;;;;;;29.33;25.10;;;14.30;99.90;;;;;;5099999;27;20036;-73
2022/05/07 07:40:24;;;;;;;34.58;26.77;;;14.40;99.90;;;;;;5087774;28;20108;-70
2022/05/07 07:42:50;;;;;;;31.67;25.00;;;14.50;99.90;;;;;;5090586;28;20046;-76
2022/05/07 07:48:02;;;;;;;27.90;24.95;;;14.60;99.90;;;;;;5093360;28;20093;-77
2022/05/07 07:50:31;;;;;;;27.60;24.42;;;14.70;99.90;;;;;;5102957;28;20050;-77
2022/05/07 07:53:07;;;;;;;31.45;25.73;;;15.50;99.90;;;;;;5105319;28;20054;-77
2022/05/07 07:55:34;;;;;;;28.88;25.75;;;14.80;99.90;;;;;;5086116;28;20127;-79
2022/05/07 07:58:01;;;;;;;27.80;24.92;;;14.80;99.90;;;;;;5088551;28;20453;-77
2022/05/07 08:00:29;;;;;;;27.52;24.52;;;14.90;99.90;;;;;;5082044;28;20104;-78
2022/05/07 08:02:58;;;;;;;30.45;27.30;;;16.10;99.90;;;;;;5100294;28;20115;-77
2022/05/07 08:05:26;;;;;;;32.15;25.00;;;15.00;99.90;;;;;;5108003;28;20483;-78
2022/05/07 08:13:20;;;;;;;25.92;23.27;;;15.90;99.90;;;;;;5108537;28;20061;-75
2022/05/07 08:15:46;;;;;;;27.48;24.55;;;15.20;99.90;;;;;;5105797;28;20491;-74
2022/05/07 08:18:13;;;;;;;28.08;25.13;;;15.20;99.90;;;;;;5108566;28;20046;-73
2022/05/07 08:20:41;;;;;;;27.73;24.65;;;16.20;99.90;;;;;;5106712;28;20048;-72
2022/05/07 08:23:08;;;;;;;26.35;23.63;;;15.30;99.90;;;;;;5104379;28;20098;-72
2022/05/07 08:25:34;;;;;;;26.67;23.10;;;15.30;99.90;;;;;;5100835;28;20044;-73
2022/05/07 08:27:59;;;;;;;26.60;23.25;;;15.30;99.90;;;;;;5107064;28;20047;-76
2022/05/07 08:30:25;;;;;;;26.15;23.33;;;15.30;99.90;;;;;;5108742;28;20039;-72
2022/05/07 08:32:51;;;;;;;26.70;23.15;;;15.40;99.90;;;;;;5105110;28;20055;-71
2022/05/07 08:35:18;;;;;;;28.17;24.17;;;15.40;99.90;;;;;;5102515;28;20040;-74
2022/05/07 08:37:44;;;;;;;29.88;25.80;;;15.40;99.90;;;;;;5109172;28;20539;-74
2022/05/07 08:40:12;;;;;;;29.77;25.20;;;15.40;99.90;;;;;;5110772;28;20043;-72
2022/05/07 08:42:38;;;;;;;30.67;25.88;;;15.40;99.90;;;;;;5109672;28;20487;-74
2022/05/07 08:45:04;;;;;;;29.10;24.10;;;15.40;99.90;;;;;;5102234;28;20434;-73
2022/05/07 08:47:31;;;;;;;27.70;24.70;;;15.40;99.90;;;;;;5112146;28;20391;-73
2022/05/07 08:49:57;;;;;;;27.95;24.00;;;15.40;99.90;;;;;;5093090;28;20051;-72
2022/05/07 08:52:23;;;;;;;28.17;25.15;;;15.40;99.90;;;;;;5093402;28;20048;-72
2022/05/07 08:54:49;;;;;;;26.50;23.20;;;15.40;99.90;;;;;;5109546;28;20039;-72
2022/05/07 08:57:15;;;;;;;36.90;31.23;;;15.50;99.90;;;;;;5111500;28;20042;-72
2022/05/07 08:59:43;;;;;;;29.17;24.90;;;15.40;99.90;;;;;;5111757;28;20128;-73
2022/05/07 09:02:09;;;;;;;25.60;22.17;;;15.40;99.90;;;;;;5093413;28;20506;-74
2022/05/07 09:04:38;;;;;;;26.52;23.60;;;15.50;99.90;;;;;;5105768;28;20379;-71
2022/05/07 09:07:05;;;;;;;25.98;23.10;;;15.50;99.90;;;;;;5111315;28;20111;-72
2022/05/07 09:09:31;;;;;;;28.70;24.75;;;15.50;99.90;;;;;;5109690;28;20051;-74
2022/05/07 09:11:58;;;;;;;29.33;23.75;;;15.50;99.90;;;;;;5110153;28;20459;-76
2022/05/07 09:14:31;;;;;;;27.98;24.95;;;15.50;99.90;;;;;;5106353;28;20547;-74
2022/05/07 09:17:00;;;;;;;31.25;25.17;;;15.60;99.90;;;;;;5109268;28;20044;-74
2022/05/07 09:19:28;;;;;;;29.50;24.30;;;15.70;99.90;;;;;;5110336;28;20043;-74
2022/05/07 09:22:14;;;;;;;28.83;25.83;;;16.10;99.90;;;;;;5091965;28;20568;-74
2022/05/07 09:24:40;;;;;;;33.75;27.98;;;15.80;99.90;;;;;;5105396;28;20047;-74
2022/05/07 09:27:06;;;;;;;44.20;32.75;;;15.80;99.90;;;;;;5109715;28;20130;-75
2022/05/07 09:29:32;;;;;;;40.08;33.22;;;15.90;99.90;;;;;;5111704;28;20809;-74
2022/05/07 09:32:15;;;;;;;43.28;32.53;;;16.00;99.90;;;;;;5109872;28;20031;-71
2022/05/07 09:37:35;;;;;;;45.13;34.47;;;16.20;99.90;;;;;;5103433;28;20083;-75
2022/05/07 09:40:05;;;;;;;49.55;37.60;;;16.30;99.90;;;;;;5109043;28;20059;-75
2022/05/07 09:42:33;;;;;;;44.75;35.17;;;16.30;99.90;;;;;;5106363;28;20491;-75
2022/05/07 09:45:01;;;;;;;40.28;32.75;;;16.40;99.90;;;;;;5090106;28;20039;-74
2022/05/07 09:47:30;;;;;;;43.55;33.30;;;16.40;99.90;;;;;;5111198;28;20052;-72
2022/05/07 09:58:12;;;;;;;44.63;32.95;;;16.50;99.90;;;;;;5104952;28;20058;-74
2022/05/07 10:01:08;;;;;;;41.53;30.98;;;16.40;99.90;;;;;;5110253;27;20047;-71
2022/05/07 10:03:38;;;;;;;41.40;31.42;;;16.50;99.90;;;;;;5103334;28;20100;-73
2022/05/07 10:06:30;;;;;;;42.28;31.08;;;16.40;99.90;;;;;;5109408;28;20052;-74
2022/05/07 10:09:21;;;;;;;39.17;29.90;;;16.40;99.90;;;;;;5110184;28;20071;-73
2022/05/07 10:11:52;;;;;;;39.17;30.05;;;16.40;99.90;;;;;;5108648;28;20062;-72
2022/05/07 10:14:30;;;;;;;39.33;30.27;;;16.50;99.90;;;;;;5106599;28;20032;-74
2022/05/07 10:17:11;;;;;;;38.30;29.63;;;16.50;99.90;;;;;;5108279;28;20044;-71
2022/05/07 10:19:39;;;;;;;38.42;27.55;;;16.70;99.90;;;;;;5086826;28;20042;-74
2022/05/07 10:22:26;;;;;;;39.17;28.55;;;16.70;99.90;;;;;;5108328;28;20551;-71
2022/05/07 10:25:04;;;;;;;42.38;30.55;;;16.80;99.90;;;;;;5105025;28;20089;-72
2022/05/07 10:27:32;;;;;;;40.55;30.13;;;16.90;99.90;;;;;;5108522;28;20048;-73
2022/05/07 10:30:03;;;;;;;39.38;30.33;;;16.80;99.90;;;;;;5109873;28;20055;-74
2022/05/07 10:32:29;;;;;;;41.28;30.95;;;16.90;99.90;;;;;;5106836;28;20782;-74
2022/05/07 10:34:56;;;;;;;43.78;31.67;;;16.90;99.90;;;;;;5105854;28;20039;-73
2022/05/07 10:37:22;;;;;;;41.03;31.60;;;17.00;99.90;;;;;;5110165;28;20694;-74
2022/05/07 10:39:52;;;;;;;44.00;31.55;;;17.00;99.90;;;;;;5109606;28;20103;-74
2022/05/07 10:42:19;;;;;;;42.05;31.60;;;17.40;99.90;;;;;;5108151;28;20046;-75
2022/05/07 10:44:45;;;;;;;43.65;31.90;;;17.00;99.90;;;;;;5104974;28;20436;-75
2022/05/07 10:47:14;;;;;;;44.45;32.95;;;16.40;99.90;;;;;;5101725;28;20035;-74
2022/05/07 10:49:49;;;;;;;41.83;31.58;;;17.10;99.90;;;;;;5058111;28;20054;-74
2022/05/07 10:52:15;;;;;;;41.83;30.98;;;17.10;99.90;;;;;;5106661;28;20074;-76
2022/05/07 10:54:41;;;;;;;42.58;31.88;;;17.10;99.90;;;;;;5108835;28;20266;-73
2022/05/07 10:57:06;;;;;;;42.90;31.80;;;17.00;99.90;;;;;;5090380;28;20776;-76
2022/05/07 10:59:33;;;;;;;44.35;34.35;;;17.00;99.90;;;;;;5091377;28;20058;-73
2022/05/07 11:02:10;;;;;;;42.15;32.97;;;17.00;99.90;;;;;;5100759;28;20047;-74
2022/05/07 11:04:43;;;;;;;45.03;35.60;;;17.00;99.90;;;;;;5100490;28;20052;-75
2022/05/07 11:07:10;;;;;;;57.28;37.60;;;16.90;99.90;;;;;;5065976;28;20126;-76
2022/05/07 11:09:35;;;;;;;52.72;40.30;;;16.90;99.90;;;;;;5106574;28;20395;-79
2022/05/07 11:12:02;;;;;;;51.90;38.58;;;17.00;99.90;;;;;;5104974;28;20047;-80
2022/05/07 11:14:34;;;;;;;52.80;39.28;;;17.00;99.90;;;;;;5084038;28;20108;-81
2022/05/07 11:17:04;;;;;;;61.30;40.33;;;17.00;99.90;;;;;;5089884;28;20045;-75
2022/05/07 11:19:32;;;;;;;56.67;41.30;;;16.90;99.90;;;;;;5106695;28;20048;-75
2022/05/07 11:22:02;;;;;;;52.55;38.58;;;16.90;99.90;;;;;;5102703;28;20043;-74
2022/05/07 11:24:31;;;;;;;56.65;38.85;;;17.60;99.90;;;;;;5087153;28;20567;-75
2022/05/07 11:26:59;;;;;;;55.35;36.95;;;17.50;99.90;;;;;;5090064;28;20039;-75
2022/05/07 11:29:24;;;;;;;49.47;36.05;;;16.80;99.90;;;;;;5102921;28;20063;-76
2022/05/07 11:31:55;;;;;;;45.67;35.22;;;16.80;99.90;;;;;;5087707;28;20044;-76
2022/05/07 11:34:35;;;;;;;44.90;33.28;;;16.80;99.90;;;;;;5108167;28;20048;-77
2022/05/07 11:37:21;;;;;;;44.83;33.28;;;16.70;99.90;;;;;;5107258;28;20050;-74
2022/05/07 11:39:51;;;;;;;48.85;33.33;;;16.80;99.90;;;;;;5108693;28;20503;-73
2022/05/07 11:42:27;;;;;;;44.25;32.08;;;16.80;99.90;;;;;;5090589;28;20119;-73
2022/05/07 11:47:37;;;;;;;38.03;27.17;;;16.80;99.90;;;;;;5086834;28;20726;-74
2022/05/07 11:50:05;;;;;;;34.42;26.48;;;16.90;99.90;;;;;;5107587;28;20138;-73
2022/05/07 11:52:30;;;;;;;28.77;22.70;;;16.90;99.90;;;;;;5084059;28;20062;-73
2022/05/07 11:54:56;;;;;;;32.67;23.52;;;16.90;99.90;;;;;;5105527;28;20055;-73
2022/05/07 11:57:32;;;;;;;42.53;22.08;;;17.00;99.90;;;;;;5109101;28;20116;-76
2022/05/07 12:00:22;;;;;;;24.38;16.88;;;17.10;99.90;;;;;;5107845;28;20584;-74
2022/05/07 12:02:57;;;;;;;12.52;10.02;;;17.10;99.90;;;;;;5101361;28;20039;-75
2022/05/07 12:05:24;;;;;;;11.05;8.27;;;17.20;99.90;;;;;;5107521;28;20087;-76
2022/05/07 12:07:51;;;;;;;10.98;8.18;;;17.30;99.90;;;;;;5106734;28;20047;-75
2022/05/07 12:10:18;;;;;;;9.23;7.97;;;17.30;99.90;;;;;;5109091;28;20216;-75
2022/05/07 12:12:45;;;;;;;9.77;8.65;;;17.60;99.90;;;;;;5108821;28;20048;-74
2022/05/07 12:15:11;;;;;;;11.57;8.25;;;17.40;99.90;;;;;;5110073;28;20032;-74
2022/05/07 12:17:52;;;;;;;12.98;8.40;;;17.40;99.90;;;;;;5113061;28;20506;-74
2022/05/07 12:20:18;;;;;;;11.55;9.82;;;17.50;99.90;;;;;;5112054;28;20122;-76
2022/05/07 12:30:56;;;;;;;16.85;9.73;;;17.60;99.90;;;;;;5091601;28;20122;-76
2022/05/07 12:33:22;;;;;;;13.30;10.15;;;17.60;99.90;;;;;;5110227;28;20128;-74
2022/05/07 12:35:49;;;;;;;12.38;10.15;;;17.70;99.90;;;;;;5112508;28;20112;-74
2022/05/07 12:38:15;;;;;;;16.13;10.98;;;17.70;99.90;;;;;;5108166;28;20089;-73
2022/05/07 12:40:40;;;;;;;17.63;10.27;;;17.80;99.90;;;;;;5111659;28;20036;-73
2022/05/07 12:43:07;;;;;;;12.55;11.15;;;17.70;99.90;;;;;;5111748;28;20047;-73
2022/05/07 12:45:34;;;;;;;15.70;11.32;;;17.70;99.90;;;;;;5112487;28;20115;-72
2022/05/07 12:48:00;;;;;;;14.23;10.45;;;17.80;99.90;;;;;;5110089;28;20043;-72
2022/05/07 12:50:26;;;;;;;13.32;10.27;;;17.80;99.90;;;;;;5111127;28;20047;-72
2022/05/07 12:52:52;;;;;;;13.43;9.80;;;17.80;99.90;;;;;;5091847;28;20528;-72
2022/05/07 12:55:17;;;;;;;12.73;9.57;;;17.80;99.90;;;;;;5110629;28;20046;-72
2022/05/07 12:57:43;;;;;;;15.15;11.05;;;17.90;99.90;;;;;;5075670;28;20494;-72
2022/05/07 13:00:09;;;;;;;14.00;9.68;;;18.00;99.90;;;;;;5108113;28;20103;-71
2022/05/07 13:02:35;;;;;;;13.50;9.98;;;18.30;99.90;;;;;;5111626;28;20077;-73
2022/05/07 13:05:00;;;;;;;15.25;8.55;;;18.40;99.90;;;;;;5111351;28;20067;-71
2022/05/07 13:07:26;;;;;;;11.40;9.45;;;18.40;99.90;;;;;;5090700;28;20054;-73
2022/05/07 13:09:51;;;;;;;12.07;9.82;;;18.50;99.90;;;;;;5106737;28;20035;-73
2022/05/07 13:12:18;;;;;;;15.73;11.48;;;18.50;99.90;;;;;;5093148;28;20046;-73